EC1KV-1
43.34.01N 006.16.01W
IN63UN aprs.fi
zuletzt gehoert:
2022-08-10T14:17:18Z
zuerst gehoert:
2020-08-25T14:22:54Z

APRS Cudillero [IN63UN], 2 Stunde(n), EC1KV-1 [16:34:15, 0s].
EC1KV 43.34.01N 006.16.01WIN63UN 0.009km 324°NW14:17:18ZALBUERNE(3EC1KV-1)
LETN 43.20.05N 006.22.69WIN63TI 27.383km 199°SSW14:30:04ZAerodromo de La Curiscada (Tineo): LEAS 101330Z 03004KT 340V090 CAVOK 27/21 Q1014 NOSIG=
ED1ZAY 43.29.47N 005.56.54WIN73AL 27.450km 108°ESE14:32:26ZRD625 438.3000/430.7000 CC1
EA1CLT 43.32.67N 005.54.42WIN73BN 29.092km 95°E14:26:33ZMMDVM MMDVM HS Hat 432.1000/432.1000 CC1(3EA1CLT-2)
440 MMDVM Voice 432.10000MHz +0.0000MHz, APRS for DMRGateway(2EA1CLT-D)
440 MMDVM Voice 432.10000MHz +0.0000MHz, EA1CLT_Pi-Star_ND(2EA1CLT-N)
EA1AHA 43.32.72N 005.54.38WIN73BN 29.136km 95°E14:31:54ZWind 000°/000kn, Böen bis 000kn, Temp 29.44c, Regen 0.0mm, letzte 24h 0.0mm, seit 0h 0.0mm, Baro 1015.6h, Hum: 55%(3EA1AHA-13)
ED1YBE 43.29.09N 006.38.69WIN63QL 31.803km 254°WSW14:23:58Z843 M.RADIO CLUB CANGAS-PANONDRES (NAVIA)(3ED1YBE-3)
ED1ZAU 43.23.04N 005.52.75WIN73BJ 37.281km 123°ESE14:32:26ZRD625 438.5000/430.9000 CC1
LEGM 43.26.15N 005.49.84WIN73CK 38.055km 112°ESE14:30:03ZHelipuerto de La Morgal (123.500MHz): LEAS 101330Z 03004KT 340V090 CAVOK 27/21 Q1014 NOSIG=
LEMR 43.25.83N 005.49.60WIN73CK 38.578km 113°ESE14:30:03ZAerodromo de la Morgal (123.500MHz): LEAS 101330Z 03004KT 340V090 CAVOK 27/21 Q1014 NOSIG=
EA1IQF 43.26.53N 005.48.94WIN73CK 38.918km 111°ESE14:22:08ZAntonio
EA1HJA 43.21.47N 005.52.09WIN73BI 39.654km 126°SE14:31:32Z IN73FL WX3IN1+ 2.0 - V=13.2V,TX TEMP=48.5C
EB1JAJ 43.21.72N 005.51.82WIN73BI 39.702km 125°SE14:31:47ZMMDVM MMDVM HS Dual Hat 438.0250/431.0250 CC1(3EB1JAJ-2)
LEHU 43.22.63N 005.49.57WIN73CJ 41.317km 121°ESE14:30:03ZHelipuerto del HUCA: LEAS 101330Z 03004KT 340V090 CAVOK 27/21 Q1014 NOSIG=
EA1ABW 43.24.77N 005.47.77WIN73CJ 41.618km 114°ESE14:30:11ZMMDVM MMDVM HS Hat 439.8250/439.8250 CC1(3EA1ABW-1)
MMDVM MMDVM HS Hat 439.8250/439.8250 CC1(2EA1ABW-2)
EA1L 43.20.37N 005.51.13WIN73BI 41.918km 127°SE14:30:06Zea1l@ure.es V=13.4V
Wind 015°/004kn, Böen bis 007kn, Temp 32.78c, Regen 0.0mm, letzte 24h 0.8mm, seit 0h 0.8mm, Baro 1012.5h, Hum: 33%(2EA1L-13)
EA1IPU 43.26.21N 005.46.62WIN73CK 42.049km 110°ESE14:30:55ZMMDVM MMDVM HS Hat 439.8000/439.8000 CC1(3EA1IPU-1)
EA1HWX 43.19.28N 005.50.98WIN73BH 43.337km 129°SE14:32:12ZMMDVM MMDVM HS Dual Hat 439.8250/430.4000 CC11(3EA1HWX-1)
DMO - UHF 439.7250/431.0000 CC11(2EA1HWX-2)
MMDVM DMO 222.3400/222.3400 CC1(2EA1HWX-10)
EB1TK 43.32.22N 005.42.32WIN73DM 45.357km 94°E14:30:29ZWind 052°/008kn, Böen bis 011kn, Temp 23.89c, Regen 0.0mm, letzte 24h 0.0mm, seit 0h 0.0mm, Baro 1017.2h, Hum: 0%(3EB1TK-13)
EA1FPN 43.32.39N 005.42.17WIN73DM 45.523km 94°E14:30:55ZMMDVM MMDVM HS Hat 439.8750/439.8750 CC1
LEEL 43.32.98N 005.41.71WIN73DN 46.078km 92°E14:30:03ZHelipuerto de El Musel: LEAS 101330Z 03004KT 340V090 CAVOK 27/21 Q1014 NOSIG=
EA1BVF 43.15.22N 006.39.57WIN63QG 47.103km 222°SW14:14:48ZDigipeater en pruebas Radioclub Cangas.(3EA1BVF-3)
EA1FFA 43.31.53N 005.40.64WIN73DM 47.718km 95°E14:31:38ZMMDVM MMDVM HS Hat 438.8000/438.8000 CC1(3EA1FFA-1)
EA1IEJ 43.31.81N 005.40.17WIN73DM 48.298km 95°E14:32:11ZMMDVM DMO 222.3400/222.3400 CC1(3EA1IEJ-11)
MMDVM MMDVM HS Hat 438.8500/438.8500 CC6(2EA1IEJ-1)
EA1DZR 43.31.48N 005.40.00WIN73EM 48.584km 95°E14:32:01ZMMDVM MMDVM HS Hat 432.1000/432.1000 CC2(3EA1DZR-2)
MMDVM DVMega 431.1000/431.1000 CC1(2EA1DZR-1)
MMDVM DV ADER 434.3500/434.3500 CC1(2EA1DZR-4)
ED1YBD 43.09.56N 006.29.74WIN63SD 48.930km 202°SSW14:20:19Z IN63SD(3ED1YBD-3)
ED1ZAE 43.27.99N 005.40.54WIN73DL 48.929km 103°ESE14:22:07Z400 M. PICO SAN MARTIN (GIJON) 13.3V,31.4C(3ED1ZAE-3)
ED1ZAS 43.27.52N 005.40.17WIN73DL 49.616km 104°ESE14:32:24ZRD985 438.2250/430.6250 CC1

aprs.pl 5.0.011w DL3EL © 2006-2021 [4280860]